createdAt,value
2018-02-10T00:00:40.243Z,58.00
2018-02-10T00:03:07.992Z,56.45
2018-02-10T00:05:35.694Z,67.78
2018-02-10T00:08:03.384Z,71.25
2018-02-10T00:10:31.061Z,69.60
2018-02-10T00:12:58.725Z,69.55
2018-02-10T00:15:26.447Z,66.60
2018-02-10T00:17:54.158Z,61.08
2018-02-10T00:20:21.882Z,60.67
2018-02-10T00:22:49.581Z,54.72
2018-02-10T00:25:17.631Z,59.67
2018-02-10T00:27:45.308Z,60.38
2018-02-10T00:30:12.979Z,64.75
2018-02-10T00:32:40.703Z,60.50
2018-02-10T00:35:08.359Z,70.35
2018-02-10T00:37:36.041Z,67.70
2018-02-10T00:40:03.752Z,67.05
2018-02-10T00:42:31.414Z,55.85
2018-02-10T00:44:59.099Z,61.03
2018-02-10T00:47:26.785Z,61.25
2018-02-10T00:49:54.858Z,64.90
2018-02-10T00:52:22.506Z,68.57
2018-02-10T00:54:50.200Z,58.70
2018-02-10T00:57:18.346Z,61.78
2018-02-10T00:59:45.970Z,56.92
2018-02-10T01:02:13.632Z,60.38
2018-02-10T01:04:42.067Z,68.32
2018-02-10T01:07:09.731Z,56.72
2018-02-10T01:09:37.359Z,65.45
2018-02-10T01:12:05.247Z,61.85
2018-02-10T01:14:32.974Z,61.78
2018-02-10T01:17:00.662Z,57.95
2018-02-10T01:19:28.536Z,66.90
2018-02-10T01:21:56.282Z,61.00
2018-02-10T01:24:23.971Z,67.25
2018-02-10T01:26:51.681Z,64.20
2018-02-10T01:29:19.293Z,56.28
2018-02-10T01:31:46.966Z,60.15
2018-02-10T01:34:14.722Z,59.08
2018-02-10T01:36:42.400Z,61.78
2018-02-10T01:39:10.141Z,60.25
2018-02-10T01:41:38.194Z,67.53
2018-02-10T01:44:05.789Z,60.78
2018-02-10T01:46:33.448Z,73.97
2018-02-10T01:49:01.141Z,65.47
2018-02-10T01:51:34.927Z,58.13
2018-02-10T01:54:03.865Z,59.22
2018-02-10T01:56:31.569Z,49.90
2018-02-10T01:58:59.326Z,63.78
2018-02-10T02:01:27.007Z,56.78
2018-02-10T02:03:54.686Z,65.05
2018-02-10T02:06:22.409Z,56.92
2018-02-10T02:08:50.144Z,57.13
2018-02-10T02:11:17.885Z,57.08
2018-02-10T02:13:45.673Z,56.92
2018-02-10T02:16:13.426Z,63.47
2018-02-10T02:18:41.103Z,57.78
2018-02-10T02:21:08.844Z,65.68
2018-02-10T02:23:36.543Z,58.95
2018-02-10T02:26:04.309Z,57.45
2018-02-10T02:28:31.995Z,70.03
2018-02-10T02:30:59.832Z,54.22
2018-02-10T02:33:27.523Z,54.83
2018-02-10T02:35:55.234Z,64.15
2018-02-10T02:38:24.935Z,47.50
2018-02-10T02:40:52.615Z,75.07
2018-02-10T02:43:20.649Z,55.58
2018-02-10T02:45:48.277Z,65.22
2018-02-10T02:48:15.926Z,55.97
2018-02-10T02:50:43.771Z,57.92
2018-02-10T02:53:11.413Z,47.58
2018-02-10T02:55:39.091Z,51.72
2018-02-10T02:58:06.804Z,63.22
2018-02-10T03:00:34.473Z,56.72
2018-02-10T03:03:02.134Z,56.33
2018-02-10T03:05:29.799Z,76.50
2018-02-10T03:07:57.575Z,66.05
2018-02-10T03:10:25.261Z,58.22
2018-02-10T03:12:52.934Z,57.88
2018-02-10T03:15:20.969Z,66.78
2018-02-10T03:17:49.037Z,52.58
2018-02-10T03:20:16.725Z,59.70
2018-02-10T03:22:44.444Z,58.00
2018-02-10T03:25:12.833Z,52.50
2018-02-10T03:27:40.576Z,60.83
2018-02-10T03:30:08.242Z,62.05
2018-02-10T03:32:36.045Z,59.00
2018-02-10T03:35:03.706Z,58.42
2018-02-10T03:37:31.430Z,58.47
2018-02-10T03:39:59.120Z,57.13
2018-02-10T03:42:26.875Z,53.08
2018-02-10T03:44:55.052Z,55.40
2018-02-10T03:47:22.753Z,61.72
2018-02-10T03:49:50.430Z,53.55
2018-02-10T03:52:18.163Z,63.83
2018-02-10T03:54:46.006Z,58.70
2018-02-10T03:57:13.834Z,60.30
2018-02-10T03:59:41.857Z,59.05
2018-02-10T04:02:09.512Z,62.28
2018-02-10T04:04:37.322Z,57.62
2018-02-10T04:07:05.052Z,61.85
2018-02-10T04:09:32.749Z,69.32
2018-02-10T04:12:00.511Z,56.08
2018-02-10T04:14:28.273Z,47.30
2018-02-10T04:16:55.948Z,58.25
2018-02-10T04:19:23.631Z,59.05
2018-02-10T04:21:51.323Z,65.62
2018-02-10T04:24:18.998Z,54.92
2018-02-10T04:26:46.818Z,59.65
2018-02-10T04:29:14.518Z,51.75
2018-02-10T04:31:42.233Z,53.65
2018-02-10T04:34:09.896Z,52.30
2018-02-10T04:36:37.680Z,52.03
2018-02-10T04:39:05.466Z,58.03
2018-02-10T04:41:33.142Z,50.03
2018-02-10T04:44:00.892Z,52.92
2018-02-10T04:46:28.533Z,57.00
2018-02-10T04:48:56.191Z,63.75
2018-02-10T04:51:23.919Z,70.78
2018-02-10T04:53:51.561Z,56.20
2018-02-10T04:56:19.263Z,56.35
2018-02-10T04:58:47.012Z,58.83
2018-02-10T05:01:14.645Z,50.42
2018-02-10T05:03:42.392Z,51.65
2018-02-10T05:06:10.093Z,54.88
2018-02-10T05:08:37.899Z,58.25
2018-02-10T05:11:05.609Z,64.00
2018-02-10T05:13:33.264Z,61.20
2018-02-10T05:16:01.095Z,53.60
2018-02-10T05:18:28.774Z,62.13
2018-02-10T05:20:56.546Z,52.47
2018-02-10T05:23:24.243Z,67.65
2018-02-10T05:25:51.975Z,59.70
2018-02-10T05:28:20.572Z,61.05
2018-02-10T05:30:48.332Z,62.25
2018-02-10T05:33:15.949Z,59.20
2018-02-10T05:35:43.595Z,48.33
2018-02-10T05:38:11.307Z,48.80
2018-02-10T05:40:39.045Z,75.85
2018-02-10T05:43:07.912Z,64.03
2018-02-10T05:45:35.830Z,63.55
2018-02-10T05:48:03.600Z,57.92
2018-02-10T05:50:31.390Z,61.22
2018-02-10T05:52:59.111Z,55.70
2018-02-10T05:55:26.809Z,62.05
2018-02-10T05:57:54.596Z,55.70
2018-02-10T06:00:22.350Z,49.75
2018-02-10T06:02:49.986Z,57.78
2018-02-10T06:05:17.768Z,68.97
2018-02-10T06:07:45.474Z,54.97
2018-02-10T06:10:13.283Z,60.85
2018-02-10T06:12:40.987Z,54.97
2018-02-10T06:15:08.719Z,55.05
2018-02-10T06:17:36.475Z,52.47
2018-02-10T06:20:04.147Z,62.55
2018-02-10T06:22:31.966Z,62.55
2018-02-10T06:24:59.707Z,56.78
2018-02-10T06:27:27.404Z,65.55
2018-02-10T06:29:55.153Z,50.25
2018-02-10T06:32:23.577Z,67.05
2018-02-10T06:34:51.325Z,59.65
2018-02-10T06:37:18.959Z,60.83
2018-02-10T06:39:46.718Z,57.55
2018-02-10T06:42:14.491Z,50.03
2018-02-10T06:44:42.260Z,62.78
2018-02-10T06:47:09.980Z,66.45
2018-02-10T06:49:37.669Z,53.60
2018-02-10T06:52:05.382Z,63.78
2018-02-10T06:54:33.088Z,64.90
2018-02-10T06:57:00.871Z,60.22
2018-02-10T06:59:28.499Z,58.30
2018-02-10T07:01:56.202Z,62.67
2018-02-10T07:04:23.850Z,59.42
2018-02-10T07:06:51.568Z,55.25
2018-02-10T07:09:19.278Z,56.15
2018-02-10T07:11:46.924Z,72.43
2018-02-10T07:14:15.128Z,47.42
2018-02-10T07:16:42.877Z,63.40
2018-02-10T07:19:10.626Z,62.10
2018-02-10T07:21:38.356Z,58.47
2018-02-10T07:24:06.090Z,53.08
2018-02-10T07:26:34.117Z,57.28
2018-02-10T07:29:02.120Z,54.72
2018-02-10T07:31:29.781Z,52.72
2018-02-10T07:33:57.681Z,56.03
2018-02-10T07:36:25.414Z,62.08
2018-02-10T07:38:53.148Z,58.55
2018-02-10T07:41:20.823Z,54.78
2018-02-10T07:43:48.803Z,50.85
2018-02-10T07:46:16.443Z,55.55
2018-02-10T07:48:44.103Z,46.78
2018-02-10T07:51:12.036Z,63.72
2018-02-10T07:53:40.090Z,56.25
2018-02-10T07:56:07.782Z,74.55
2018-02-10T07:58:36.061Z,76.05
2018-02-10T08:01:03.806Z,63.38
2018-02-10T08:03:31.479Z,76.95
2018-02-10T08:05:59.175Z,290.62
2018-02-10T08:08:26.882Z,78.30
2018-02-10T08:10:54.564Z,68.43
2018-02-10T08:13:22.317Z,55.70
2018-02-10T08:15:50.026Z,61.58
2018-02-10T08:18:17.931Z,60.17
2018-02-10T08:20:45.939Z,63.33
2018-02-10T08:23:13.574Z,68.07
2018-02-10T08:25:41.638Z,54.95
2018-02-10T08:28:09.282Z,59.75
2018-02-10T08:30:36.944Z,84.10
2018-02-10T08:33:04.637Z,61.35
2018-02-10T08:35:32.262Z,56.30
2018-02-10T08:37:59.930Z,75.78
2018-02-10T08:40:27.612Z,69.05
2018-02-10T08:42:55.241Z,70.15
2018-02-10T08:45:22.904Z,59.15
2018-02-10T08:47:50.644Z,62.38
2018-02-10T08:50:18.349Z,78.70
2018-02-10T08:52:46.357Z,61.65
2018-02-10T08:55:13.959Z,78.53
2018-02-10T08:57:41.572Z,66.95
2018-02-10T09:00:09.346Z,82.50
2018-02-10T09:02:37.034Z,83.25
2018-02-10T09:05:04.694Z,89.37
2018-02-10T09:07:32.356Z,72.97
2018-02-10T09:10:00.015Z,67.75
2018-02-10T09:12:28.075Z,73.07
2018-02-10T09:14:55.704Z,65.07
2018-02-10T09:17:23.710Z,81.95
2018-02-10T09:19:52.085Z,77.45
2018-02-10T09:22:19.986Z,72.93
2018-02-10T09:24:47.758Z,66.72
2018-02-10T09:27:15.484Z,70.15
2018-02-10T09:29:43.118Z,85.38
2018-02-10T09:32:11.234Z,71.97
2018-02-10T09:34:38.929Z,78.80
2018-02-10T09:37:06.551Z,75.87
2018-02-10T09:39:34.247Z,89.68
2018-02-10T09:42:01.905Z,81.10
2018-02-10T09:44:29.600Z,80.32
2018-02-10T09:46:57.340Z,95.93
2018-02-10T09:49:25.212Z,83.32
2018-02-10T09:51:53.210Z,74.50
2018-02-10T09:54:20.866Z,63.72
2018-02-10T09:56:48.526Z,74.53
2018-02-10T09:59:16.188Z,74.72
2018-02-10T10:01:43.908Z,78.65
2018-02-10T10:04:11.667Z,72.43
2018-02-10T10:06:39.324Z,96.82
2018-02-10T10:09:07.102Z,86.22
2018-02-10T10:11:35.070Z,84.75
2018-02-10T10:14:02.791Z,82.07
2018-02-10T10:16:30.504Z,92.60
2018-02-10T10:18:58.638Z,90.85
2018-02-10T10:21:26.426Z,79.47
2018-02-10T10:23:54.182Z,88.32
2018-02-10T10:26:21.839Z,87.35
2018-02-10T10:28:49.948Z,105.20
2018-02-10T10:31:17.642Z,83.97
2018-02-10T10:33:45.284Z,96.45
2018-02-10T10:36:15.934Z,86.20
2018-02-10T10:38:47.695Z,85.12
2018-02-10T10:41:23.111Z,88.80
2018-02-10T10:43:59.759Z,100.97
2018-02-10T10:46:27.469Z,81.00
2018-02-10T10:48:55.166Z,102.18
2018-02-10T10:51:23.214Z,85.28
2018-02-10T10:53:50.880Z,79.97
2018-02-10T10:56:18.641Z,89.55
2018-02-10T10:58:46.349Z,99.47
2018-02-10T11:01:14.620Z,95.53
2018-02-10T11:03:48.914Z,83.07
2018-02-10T11:06:17.368Z,84.00
2018-02-10T11:08:45.166Z,82.70
2018-02-10T11:24:55.268Z,68.40
2018-02-10T11:27:23.048Z,73.40
2018-02-10T11:29:50.748Z,68.90
2018-02-10T11:32:18.519Z,76.25
2018-02-10T11:34:46.678Z,64.12
2018-02-10T11:37:14.778Z,65.90
2018-02-10T11:39:42.640Z,96.50
2018-02-10T11:42:11.143Z,88.70
2018-02-10T11:44:38.875Z,81.30
2018-02-10T11:47:07.734Z,64.83
2018-02-10T11:49:35.527Z,89.77
2018-02-10T11:52:06.532Z,82.30
2018-02-10T11:54:34.243Z,70.50
2018-02-10T11:57:02.015Z,72.30
2018-02-10T11:59:29.799Z,63.63
2018-02-10T12:02:04.428Z,78.73
2018-02-10T12:04:32.577Z,67.00
2018-02-10T12:07:01.557Z,63.63
2018-02-10T12:09:33.815Z,60.50
2018-02-10T12:12:01.501Z,61.90
2018-02-10T12:14:29.280Z,74.18
2018-02-10T12:16:58.095Z,68.67
2018-02-10T12:19:27.543Z,68.27
2018-02-10T12:21:56.750Z,56.63
2018-02-10T12:24:24.821Z,52.90
2018-02-10T12:27:04.909Z,47.13
2018-02-10T12:29:32.935Z,50.93
2018-02-10T12:32:00.705Z,46.30
2018-02-10T12:34:28.828Z,56.73
2018-02-10T12:36:56.494Z,51.37
2018-02-10T12:39:25.211Z,50.80
2018-02-10T12:41:52.932Z,50.40
2018-02-10T12:44:20.661Z,52.03
2018-02-10T12:46:48.442Z,45.57
2018-02-10T12:49:35.941Z,48.00
2018-02-10T12:52:04.141Z,38.63
2018-02-10T12:54:31.940Z,35.57
2018-02-10T12:56:59.947Z,37.70
2018-02-10T12:59:28.026Z,38.60
2018-02-10T13:01:56.110Z,40.53
2018-02-10T13:04:23.877Z,32.00
2018-02-10T13:06:51.596Z,40.73
2018-02-10T13:09:19.282Z,33.40
2018-02-10T13:11:47.001Z,40.63
2018-02-10T13:14:14.615Z,41.13
2018-02-10T13:16:42.418Z,48.20
2018-02-10T13:19:10.076Z,38.13
2018-02-10T13:21:37.794Z,36.27
2018-02-10T13:24:05.472Z,35.60
2018-02-10T13:26:33.296Z,33.90
2018-02-10T13:29:01.018Z,33.13
2018-02-10T13:31:29.071Z,33.20
2018-02-10T13:33:56.796Z,35.97
2018-02-10T13:36:24.517Z,30.77
2018-02-10T13:38:53.345Z,31.10
2018-02-10T13:41:21.036Z,32.03
2018-02-10T13:43:48.836Z,35.73
2018-02-10T13:46:16.576Z,37.50
2018-02-10T13:48:44.684Z,36.57
2018-02-10T13:51:12.497Z,31.53
2018-02-10T13:53:40.172Z,34.63
2018-02-10T13:56:08.257Z,30.70
2018-02-10T13:58:35.992Z,36.20
2018-02-10T14:01:03.629Z,31.33
2018-02-10T14:03:31.293Z,35.93
2018-02-10T14:05:59.029Z,33.70
2018-02-10T14:08:27.073Z,37.87
2018-02-10T14:10:54.821Z,37.07
2018-02-10T14:13:22.481Z,41.33
2018-02-10T14:15:53.871Z,42.80
2018-02-10T14:18:22.062Z,27.60
2018-02-10T14:20:49.774Z,35.70
2018-02-10T14:23:17.632Z,38.70
2018-02-10T14:25:45.494Z,30.80
2018-02-10T14:28:13.235Z,32.70
2018-02-10T14:30:41.374Z,26.80
2018-02-10T14:33:09.498Z,25.30
2018-02-10T14:35:37.249Z,32.57
2018-02-10T14:38:04.961Z,28.60
2018-02-10T14:40:33.991Z,26.53
2018-02-10T14:43:01.772Z,29.93
2018-02-10T14:45:29.560Z,25.77
2018-02-10T14:47:57.340Z,33.13
2018-02-10T14:50:25.124Z,25.80
2018-02-10T14:52:53.384Z,28.03
2018-02-10T14:55:21.159Z,29.63
2018-02-10T14:57:48.839Z,30.23
2018-02-10T15:03:07.496Z,24.83
2018-02-10T15:05:36.080Z,35.13
2018-02-10T15:08:03.866Z,32.50
2018-02-10T15:10:31.592Z,30.73
2018-02-10T15:12:59.437Z,33.13
2018-02-10T15:15:27.189Z,32.90
2018-02-10T15:17:55.124Z,38.57
2018-02-10T15:20:22.892Z,37.27
2018-02-10T15:22:50.820Z,33.40
2018-02-10T15:25:18.531Z,30.27
2018-02-10T15:27:46.337Z,31.93
2018-02-10T15:30:25.904Z,30.93
2018-02-10T15:33:05.577Z,30.43
2018-02-10T15:35:33.384Z,39.47
2018-02-10T15:38:02.438Z,34.13
2018-02-10T15:40:30.508Z,35.07
2018-02-10T15:42:58.241Z,33.90
2018-02-10T15:45:25.985Z,30.77
2018-02-10T15:47:53.785Z,32.97
2018-02-10T15:50:21.560Z,33.40
2018-02-10T15:52:49.327Z,33.43
2018-02-10T15:55:17.113Z,48.23
2018-02-10T15:57:44.919Z,49.17
2018-02-10T16:00:15.811Z,52.20
2018-02-10T16:02:43.700Z,52.03
2018-02-10T16:05:11.770Z,46.90
2018-02-10T16:07:40.568Z,36.23
2018-02-10T16:10:08.324Z,39.87
2018-02-10T16:12:36.147Z,41.80
2018-02-10T16:15:06.818Z,41.40
2018-02-10T16:17:38.334Z,36.30
2018-02-10T16:20:08.264Z,34.80
2018-02-10T16:22:37.878Z,33.93
2018-02-10T16:25:05.634Z,42.27
2018-02-10T16:27:33.506Z,34.67
2018-02-10T16:30:01.274Z,41.90
2018-02-10T16:32:29.038Z,108.80
2018-02-10T16:34:56.852Z,81.30
2018-02-10T16:42:36.613Z,49.60
2018-02-10T16:45:04.648Z,47.13
2018-02-10T16:47:32.374Z,34.03
2018-02-10T16:50:00.549Z,35.10
2018-02-10T16:52:28.732Z,46.63
2018-02-10T16:54:56.990Z,39.30
2018-02-10T16:57:27.146Z,40.60
2018-02-10T16:59:54.982Z,59.23
2018-02-10T17:02:22.689Z,49.42
2018-02-10T17:04:50.463Z,39.27
2018-02-10T17:07:18.196Z,47.07
2018-02-10T17:09:45.916Z,54.60
2018-02-10T17:12:13.609Z,50.50
2018-02-10T17:14:43.658Z,44.17
2018-02-10T17:17:13.274Z,69.32
2018-02-10T17:19:41.537Z,64.60
2018-02-10T17:22:09.466Z,54.80
2018-02-10T17:24:37.170Z,47.58
2018-02-10T17:27:06.509Z,52.80
2018-02-10T17:29:34.558Z,68.40
2018-02-10T17:32:02.358Z,74.43
2018-02-10T17:34:30.048Z,56.63
2018-02-10T17:36:57.757Z,53.25
2018-02-10T17:39:25.555Z,48.70
2018-02-10T17:41:53.266Z,51.70
2018-02-10T17:44:20.984Z,56.00
2018-02-10T17:46:48.704Z,68.95
2018-02-10T17:49:16.372Z,57.85
2018-02-10T17:51:44.454Z,62.33
2018-02-10T17:54:12.186Z,54.60
2018-02-10T17:56:39.845Z,57.13
2018-02-10T17:59:07.523Z,69.93
2018-02-10T18:01:35.270Z,61.27
2018-02-10T18:04:03.033Z,57.08
2018-02-10T18:06:30.779Z,53.60
2018-02-10T18:08:58.581Z,62.42
2018-02-10T18:11:26.313Z,63.13
2018-02-10T18:13:54.129Z,69.95
2018-02-10T18:16:21.871Z,69.33
2018-02-10T18:18:49.683Z,67.93
2018-02-10T18:21:17.406Z,79.93
2018-02-10T18:23:45.243Z,56.35
2018-02-10T18:26:13.022Z,55.40
2018-02-10T18:28:40.882Z,65.60
2018-02-10T18:31:08.738Z,58.78
2018-02-10T18:33:36.501Z,61.88
2018-02-10T18:36:04.240Z,56.05
2018-02-10T18:38:33.076Z,65.22
2018-02-10T18:41:00.816Z,60.33
2018-02-10T18:43:28.566Z,70.05
2018-02-10T18:45:56.323Z,75.05
2018-02-10T18:48:24.440Z,99.97
2018-02-10T18:50:52.177Z,66.78
2018-02-10T18:53:20.188Z,75.82
2018-02-10T18:55:47.952Z,73.15
2018-02-10T18:58:15.850Z,56.60
2018-02-10T19:00:44.301Z,66.87
2018-02-10T19:03:11.983Z,94.43
2018-02-10T19:05:39.691Z,108.82
2018-02-10T19:08:07.432Z,168.03
2018-02-10T19:10:35.550Z,174.12
2018-02-10T19:13:03.269Z,79.12
2018-02-10T19:15:31.069Z,80.62
2018-02-10T19:17:59.571Z,80.00
2018-02-10T19:20:27.525Z,96.05
2018-02-10T19:22:55.298Z,69.47
2018-02-10T19:25:23.075Z,79.00
2018-02-10T19:27:50.760Z,70.30
2018-02-10T19:30:18.613Z,90.32
2018-02-10T19:32:46.365Z,80.80
2018-02-10T19:35:14.142Z,81.75
2018-02-10T19:37:41.883Z,89.18
2018-02-10T19:40:09.649Z,65.00
2018-02-10T19:42:37.471Z,73.78
2018-02-10T19:45:05.262Z,68.18
2018-02-10T19:47:33.101Z,68.35
2018-02-10T19:50:00.834Z,76.55
2018-02-10T19:52:28.531Z,81.63
2018-02-10T19:54:56.278Z,99.28
2018-02-10T19:57:24.021Z,90.80
2018-02-10T19:59:51.858Z,82.20
2018-02-10T20:02:19.718Z,80.33
2018-02-10T20:04:47.429Z,85.55
2018-02-10T20:07:15.115Z,61.22
2018-02-10T20:09:43.260Z,73.65
2018-02-10T20:12:11.211Z,78.35
2018-02-10T20:14:39.386Z,69.15
2018-02-10T20:17:07.118Z,75.37
2018-02-10T20:19:34.951Z,61.67
2018-02-10T20:22:02.736Z,90.35
2018-02-10T20:24:30.958Z,64.72
2018-02-10T20:26:59.160Z,56.92
2018-02-10T20:29:26.976Z,70.63
2018-02-10T20:31:54.664Z,50.75
2018-02-10T20:34:22.455Z,58.38
2018-02-10T20:36:50.226Z,60.33
2018-02-10T20:39:18.005Z,57.10
2018-02-10T20:41:45.872Z,61.67
2018-02-10T20:44:13.637Z,69.72
2018-02-10T20:46:41.379Z,65.87
2018-02-10T20:49:09.182Z,50.12
2018-02-10T20:51:37.137Z,36.28
2018-02-10T20:54:04.923Z,50.33
2018-02-10T20:56:33.249Z,33.87
2018-02-10T20:59:01.130Z,30.42
2018-02-10T21:01:28.908Z,46.03
2018-02-10T21:03:56.745Z,36.03
2018-02-10T21:11:43.706Z,41.40
2018-02-10T21:14:11.442Z,25.67
2018-02-10T21:16:39.221Z,24.58
2018-02-10T21:19:07.033Z,25.83
2018-02-10T21:21:34.685Z,46.33
2018-02-10T21:24:02.412Z,37.70
2018-02-10T21:26:30.105Z,25.92
2018-02-10T21:28:57.914Z,23.73
2018-02-10T21:31:25.618Z,19.10
2018-02-10T21:33:53.380Z,19.00
2018-02-10T21:36:21.130Z,16.33
2018-02-10T21:38:48.923Z,14.20
2018-02-10T21:41:16.640Z,19.80
2018-02-10T21:43:44.396Z,15.33
2018-02-10T21:46:12.168Z,14.02
2018-02-10T21:48:39.972Z,31.50
2018-02-10T21:51:07.779Z,18.92
2018-02-10T21:53:35.426Z,18.87
2018-02-10T21:56:03.152Z,11.43
2018-02-10T21:58:30.891Z,14.23
2018-02-10T22:00:58.964Z,14.68
2018-02-10T22:03:26.659Z,13.90
2018-02-10T22:05:54.545Z,10.90
2018-02-10T22:08:22.210Z,19.40
2018-02-10T22:19:52.166Z,11.55
2018-02-10T22:22:19.910Z,13.65
2018-02-10T22:24:47.670Z,9.07
2018-02-10T22:27:15.566Z,7.85
2018-02-10T22:29:43.315Z,9.90
2018-02-10T22:32:11.127Z,11.88
2018-02-10T22:34:38.892Z,8.00
2018-02-10T22:37:06.606Z,15.90
2018-02-10T22:39:34.346Z,8.10
2018-02-10T22:42:02.171Z,4.90
2018-02-10T22:44:29.953Z,11.73
2018-02-10T22:46:57.800Z,7.57
2018-02-10T22:49:25.619Z,12.48
2018-02-10T22:51:53.451Z,14.50
2018-02-10T22:54:21.298Z,12.30
2018-02-10T22:56:49.440Z,12.02
2018-02-10T22:59:17.220Z,13.13
2018-02-10T23:01:45.467Z,5.60
2018-02-10T23:04:13.575Z,15.82
2018-02-10T23:06:41.324Z,13.23
2018-02-10T23:09:09.126Z,16.00
2018-02-10T23:11:36.800Z,11.95
2018-02-10T23:14:04.537Z,10.55
2018-02-10T23:16:32.302Z,17.60
2018-02-10T23:19:00.113Z,14.55
2018-02-10T23:21:27.866Z,8.05
2018-02-10T23:23:55.589Z,6.70
2018-02-10T23:26:23.331Z,8.70
2018-02-10T23:28:51.066Z,8.27
2018-02-10T23:31:18.788Z,11.05
2018-02-10T23:33:46.499Z,12.20
2018-02-10T23:36:14.693Z,13.48
2018-02-10T23:38:42.349Z,15.98
2018-02-10T23:41:10.089Z,11.70
2018-02-10T23:43:37.977Z,13.38
2018-02-10T23:46:06.308Z,14.63
2018-02-10T23:48:34.594Z,14.38
2018-02-10T23:51:03.077Z,10.65
2018-02-10T23:53:31.090Z,13.77
2018-02-10T23:55:58.810Z,5.80
2018-02-10T23:58:26.514Z,12.93
